Pagrindinis puslapis
METAR-TAF:

METAR-TAF

Oro uostai :

Lakselv, Norvegija

platuma: 70-04N, ilguma: 024-59E, Aukštis: 0 m

Dabartinis oras

Ataskaita buvo paskelbta 1 valandą ir 3 minutes, ne 03:50 UTC
Vėjas 7 kt iš Pietų
Temperatūra -5°C
Drėgmė 79%
Slėgis 976 hPa
Matomumas 10 km arba daugiau

METAR: ENNA 300350Z AUTO 19007KT 9999 FEW004/// BKN011/// OVC017/// M05/M08 Q0976 RMK WIND 1800FT 11004KT

Laikas: 05:53 (04:53 UTC)

Prognozė

Prognozė galioja nuo 30 metu 00 UTC su 30 metu 24 UTC
Vėjas 8 kt iš Pietų
Matomumas 10 km arba daugiau
Mažai debesys ne aukštis 1500 ft
Su prošvaistėmis ne aukštis 3000 ft
Laikinai
nuo 30 metu 00 UTC su 30 metu 06 UTC
Su prošvaistėmis ne aukštis 1200 ft
Tikimybė 40% :
Laikinai
nuo 30 metu 12 UTC su 30 metu 24 UTC
Matomumas: 4000 m
ne aukštis 1400 ft
sniegas
Tapsmas
nuo 30 metu 19 UTC su 30 metu 21 UTC
Vėjas 12 kt iš Šiaurės/Šiaurės Vakarų

TAF: ENNA 3000/3024 18008KT 9999 FEW015 BKN030 TEMPO 3000/3006 BKN012 PROB40 TEMPO 3012/3024 4000 -SHSN VV014 BECMG 3019/3021 34012KT

Orai ataskaitas ir orų prognozės (METAR, TAF).

turimą stotys yra geltonos ir raudonos taškus žemėlapyje.

Perkelti pele per norėdami pamatyti stoties vardą.

Tada spustelėkite, norėdami matyti oro stebėjimo ir prognozės.

Norėdami pakeisti žemėlapį: spustelėkite ant žalios mygtukų su juodo kryžiaus žemyn,; žalią mygtuką su brūkšneliu, jei norite nutolinti; arba žalių rodyklių gretimoms žemėlapius.


METAR-TAF: